createdAt,value
2022-08-03T00:00:09.890Z,16.89
2022-08-03T00:02:57.787Z,16.91
2022-08-03T00:06:03.458Z,16.90
2022-08-03T00:08:37.642Z,16.88
2022-08-03T00:11:23.497Z,16.86
2022-08-03T00:14:11.048Z,16.89
2022-08-03T00:16:58.617Z,16.89
2022-08-03T00:19:46.938Z,16.85
2022-08-03T00:22:36.274Z,16.79
2022-08-03T00:25:23.985Z,16.76
2022-08-03T00:28:11.713Z,16.74
2022-08-03T00:30:59.225Z,16.71
2022-08-03T00:33:58.083Z,16.67
2022-08-03T00:36:35.410Z,16.62
2022-08-03T00:39:23.010Z,16.54
2022-08-03T00:42:10.298Z,16.47
2022-08-03T00:44:57.668Z,16.41
2022-08-03T00:47:45.928Z,16.36
2022-08-03T00:50:35.715Z,16.34
2022-08-03T00:53:23.433Z,16.32
2022-08-03T00:56:12.716Z,16.31
2022-08-03T00:59:00.617Z,16.30
2022-08-03T01:01:48.330Z,16.32
2022-08-03T01:04:35.956Z,16.30
2022-08-03T01:07:35.216Z,16.29
2022-08-03T01:10:31.649Z,16.28
2022-08-03T01:14:01.290Z,16.26
2022-08-03T01:16:35.848Z,16.20
2022-08-03T01:19:39.184Z,16.16
2022-08-03T01:23:03.057Z,16.14
2022-08-03T01:26:12.658Z,16.15
2022-08-03T01:29:21.840Z,16.18
2022-08-03T01:33:02.784Z,16.18
2022-08-03T01:35:12.811Z,16.19
2022-08-03T01:38:04.930Z,16.18
2022-08-03T01:40:54.784Z,16.19
2022-08-03T01:43:55.339Z,16.20
2022-08-03T01:46:33.289Z,16.18
2022-08-03T01:49:21.701Z,16.12
2022-08-03T01:52:09.405Z,16.10
2022-08-03T01:54:57.416Z,16.08
2022-08-03T01:58:05.873Z,16.09
2022-08-03T02:00:37.616Z,16.08
2022-08-03T02:03:26.321Z,16.07
2022-08-03T02:07:00.099Z,16.05
2022-08-03T02:09:05.080Z,16.03
2022-08-03T02:11:53.727Z,15.98
2022-08-03T02:14:43.432Z,15.97
2022-08-03T02:17:39.000Z,15.97
2022-08-03T02:20:21.281Z,15.96
2022-08-03T02:23:08.777Z,15.93
2022-08-03T02:26:02.305Z,15.92
2022-08-03T02:28:52.343Z,15.88
2022-08-03T02:31:41.360Z,15.89
2022-08-03T02:34:30.019Z,15.91
2022-08-03T02:37:19.553Z,15.92
2022-08-03T02:40:08.391Z,15.95
2022-08-03T02:42:59.359Z,15.98
2022-08-03T02:45:49.360Z,16.03
2022-08-03T02:48:38.432Z,16.08
2022-08-03T02:51:26.880Z,16.10
2022-08-03T02:54:16.561Z,16.10
2022-08-03T02:57:04.247Z,16.10
2022-08-03T02:59:51.736Z,16.09
2022-08-03T03:02:40.831Z,16.10
2022-08-03T03:05:52.241Z,16.12
2022-08-03T03:08:26.157Z,16.10
2022-08-03T03:11:10.488Z,16.09
2022-08-03T03:13:58.799Z,16.09
2022-08-03T03:16:47.304Z,16.10
2022-08-03T03:19:38.144Z,16.13
2022-08-03T03:22:26.215Z,16.14
2022-08-03T03:25:13.999Z,16.16
2022-08-03T03:28:02.423Z,16.14
2022-08-03T03:30:52.846Z,16.13
2022-08-03T03:33:40.667Z,16.13
2022-08-03T03:36:28.104Z,16.14
2022-08-03T03:39:16.206Z,16.18
2022-08-03T03:42:04.368Z,16.22
2022-08-03T03:44:51.697Z,16.26
2022-08-03T03:47:39.823Z,16.29
2022-08-03T03:50:28.508Z,16.34
2022-08-03T03:53:16.303Z,16.38
2022-08-03T03:56:04.102Z,16.43
2022-08-03T03:58:51.575Z,16.46
2022-08-03T04:01:40.158Z,16.53
2022-08-03T04:04:45.607Z,16.58
2022-08-03T04:07:49.871Z,16.63
2022-08-03T04:10:43.077Z,16.70
2022-08-03T04:13:36.326Z,16.82
2022-08-03T04:16:26.590Z,16.89
2022-08-03T04:19:18.455Z,16.97
2022-08-03T04:24:55.071Z,17.25
2022-08-03T04:27:43.841Z,17.29
2022-08-03T04:30:32.446Z,17.41
2022-08-03T04:33:19.997Z,17.52
2022-08-03T04:36:10.902Z,17.64
2022-08-03T04:39:01.720Z,17.76
2022-08-03T04:42:02.346Z,17.89
2022-08-03T04:44:41.375Z,17.99
2022-08-03T04:47:28.985Z,18.11
2022-08-03T04:50:21.398Z,18.21
2022-08-03T04:53:07.888Z,18.37
2022-08-03T04:55:55.679Z,18.51
2022-08-03T04:58:43.351Z,18.68
2022-08-03T05:01:30.462Z,18.83
2022-08-03T05:04:18.577Z,19.01
2022-08-03T05:07:11.671Z,19.21
2022-08-03T05:10:01.320Z,19.45
2022-08-03T05:12:43.327Z,19.58
2022-08-03T05:15:30.712Z,19.70
2022-08-03T05:18:18.560Z,19.93
2022-08-03T05:21:05.823Z,20.07
2022-08-03T05:23:53.312Z,20.17
2022-08-03T05:26:40.527Z,20.43
2022-08-03T05:29:27.785Z,20.61
2022-08-03T05:32:15.439Z,20.81
2022-08-03T05:35:57.366Z,21.05
2022-08-03T05:37:54.756Z,21.29
2022-08-03T05:40:40.391Z,21.46
2022-08-03T05:43:29.458Z,21.53
2022-08-03T05:46:17.138Z,21.47
2022-08-03T05:49:04.865Z,21.53
2022-08-03T05:52:00.285Z,21.67
2022-08-03T05:54:56.647Z,21.80
2022-08-03T05:57:31.440Z,21.89
2022-08-03T06:00:19.712Z,21.99
2022-08-03T06:03:08.792Z,22.07
2022-08-03T06:06:00.323Z,22.10
2022-08-03T06:08:46.803Z,22.24
2022-08-03T06:11:34.520Z,22.38
2022-08-03T06:14:22.176Z,22.29
2022-08-03T06:17:09.464Z,22.09
2022-08-03T06:19:58.489Z,21.97
2022-08-03T06:22:51.177Z,21.90
2022-08-03T06:25:35.993Z,21.91
2022-08-03T06:28:53.038Z,22.02
2022-08-03T06:31:12.985Z,22.15
2022-08-03T06:34:33.027Z,22.36
2022-08-03T06:36:52.262Z,22.61
2022-08-03T06:39:40.209Z,22.73
2022-08-03T06:42:27.921Z,22.89
2022-08-03T06:45:15.512Z,22.96
2022-08-03T06:48:10.969Z,23.11
2022-08-03T06:50:58.630Z,23.24
2022-08-03T06:53:46.410Z,23.45
2022-08-03T06:56:33.841Z,23.65
2022-08-03T07:00:10.364Z,23.73
2022-08-03T07:02:10.690Z,23.83
2022-08-03T07:04:58.307Z,24.04
2022-08-03T07:07:46.433Z,24.14
2022-08-03T07:10:33.803Z,24.22
2022-08-03T07:13:21.194Z,24.14
2022-08-03T07:16:08.784Z,24.11
2022-08-03T07:18:56.098Z,24.25
2022-08-03T07:21:43.794Z,24.44
2022-08-03T07:24:31.473Z,24.40
2022-08-03T07:27:18.945Z,24.25
2022-08-03T07:30:08.340Z,24.18
2022-08-03T07:32:55.482Z,24.37
2022-08-03T07:35:42.945Z,24.74
2022-08-03T07:38:30.245Z,24.99
2022-08-03T07:41:17.945Z,25.04
2022-08-03T07:44:05.480Z,25.02
2022-08-03T07:46:52.771Z,25.00
2022-08-03T07:49:44.479Z,24.90
2022-08-03T07:52:33.912Z,24.89
2022-08-03T07:55:24.409Z,25.09
2022-08-03T07:58:16.474Z,25.46
2022-08-03T08:01:04.607Z,25.59
2022-08-03T08:03:53.446Z,25.60
2022-08-03T08:06:41.201Z,25.67
2022-08-03T08:09:29.134Z,25.88
2022-08-03T08:12:16.988Z,26.06
2022-08-03T08:15:04.695Z,26.42
2022-08-03T08:17:54.629Z,26.62
2022-08-03T08:20:41.769Z,26.71
2022-08-03T08:23:37.904Z,26.76
2022-08-03T08:26:20.213Z,26.98
2022-08-03T08:29:07.512Z,27.11
2022-08-03T08:31:55.048Z,27.33
2022-08-03T08:34:42.648Z,27.44
2022-08-03T08:37:29.666Z,27.40
2022-08-03T08:40:17.618Z,27.33
2022-08-03T08:43:07.603Z,27.62
2022-08-03T08:45:55.816Z,27.97
2022-08-03T08:48:45.147Z,28.26
2022-08-03T08:51:51.040Z,28.51
2022-08-03T08:54:23.576Z,28.48
2022-08-03T08:57:26.858Z,28.59
2022-08-03T09:00:01.871Z,28.73
2022-08-03T09:02:49.463Z,29.01
2022-08-03T09:05:55.490Z,29.25
2022-08-03T09:08:27.873Z,29.03
2022-08-03T09:11:14.913Z,29.07
2022-08-03T09:14:02.591Z,29.07
2022-08-03T09:17:04.448Z,28.43
2022-08-03T09:20:11.391Z,27.88
2022-08-03T09:23:19.074Z,27.47
2022-08-03T09:25:57.105Z,27.16
2022-08-03T09:29:00.086Z,26.90
2022-08-03T09:31:45.070Z,26.69
2022-08-03T09:34:33.057Z,26.55
2022-08-03T09:37:23.536Z,26.39
2022-08-03T09:40:13.479Z,26.23
2022-08-03T09:43:01.857Z,26.05
2022-08-03T09:45:49.378Z,25.96
2022-08-03T09:48:37.492Z,25.92
2022-08-03T09:51:33.202Z,25.88
2022-08-03T09:54:20.630Z,25.84
2022-08-03T09:57:06.605Z,25.82
2022-08-03T10:00:04.703Z,26.26
2022-08-03T10:02:46.840Z,26.83
2022-08-03T10:05:34.432Z,27.20
2022-08-03T10:08:22.361Z,27.11
2022-08-03T10:11:09.688Z,26.88
2022-08-03T10:13:57.968Z,27.05
2022-08-03T10:16:46.729Z,27.32
2022-08-03T10:19:34.828Z,27.66
2022-08-03T10:25:11.288Z,27.75
2022-08-03T10:28:01.225Z,28.21
2022-08-03T10:30:53.287Z,28.12
2022-08-03T10:33:49.687Z,27.94
2022-08-03T10:36:33.839Z,27.72
2022-08-03T10:39:23.372Z,27.58
2022-08-03T10:42:14.705Z,27.45
2022-08-03T10:45:02.655Z,27.30
2022-08-03T10:47:51.162Z,27.19
2022-08-03T10:50:39.209Z,27.14
2022-08-03T10:53:37.681Z,27.04
2022-08-03T10:56:55.420Z,26.85
2022-08-03T10:59:52.442Z,26.63
2022-08-03T11:03:08.926Z,26.58
2022-08-03T11:06:17.825Z,26.59
2022-08-03T11:09:16.936Z,26.54
2022-08-03T11:12:05.896Z,26.49
2022-08-03T11:14:55.095Z,26.46
2022-08-03T11:17:46.925Z,26.48
2022-08-03T11:20:47.436Z,26.46
2022-08-03T11:24:04.714Z,26.40
2022-08-03T11:26:38.592Z,26.36
2022-08-03T11:29:30.593Z,26.29
2022-08-03T11:32:37.643Z,26.28
2022-08-03T11:35:37.064Z,26.31
2022-08-03T11:38:24.967Z,26.35
2022-08-03T11:41:15.492Z,26.39
2022-08-03T11:44:03.289Z,26.48
2022-08-03T11:46:50.712Z,26.57
2022-08-03T11:49:40.550Z,26.68
2022-08-03T11:52:29.090Z,26.91
2022-08-03T11:55:18.976Z,27.06
2022-08-03T11:59:13.150Z,27.62
2022-08-03T12:01:06.770Z,28.17
2022-08-03T12:03:54.241Z,28.71
2022-08-03T12:06:56.459Z,29.09
2022-08-03T12:09:44.409Z,29.59
2022-08-03T12:12:31.960Z,30.08
2022-08-03T12:15:22.737Z,29.95
2022-08-03T12:18:18.505Z,30.23
2022-08-03T12:21:10.398Z,30.20
2022-08-03T12:24:00.901Z,30.28
2022-08-03T12:26:58.556Z,30.51
2022-08-03T12:29:39.992Z,30.70
2022-08-03T12:32:28.049Z,30.60
2022-08-03T12:35:25.577Z,30.70
2022-08-03T12:38:13.705Z,30.55
2022-08-03T12:41:06.679Z,30.56
2022-08-03T12:43:55.344Z,30.81
2022-08-03T12:46:47.759Z,31.00
2022-08-03T12:49:50.425Z,31.09
2022-08-03T12:52:45.786Z,31.26
2022-08-03T12:55:57.521Z,31.59
2022-08-03T12:58:34.530Z,31.82
2022-08-03T13:01:27.421Z,31.78
2022-08-03T13:04:18.265Z,32.03
2022-08-03T13:07:06.498Z,32.17
2022-08-03T13:09:56.993Z,32.22
2022-08-03T13:12:50.927Z,32.40
2022-08-03T13:15:48.103Z,32.49
2022-08-03T13:18:27.456Z,32.63
2022-08-03T13:21:16.456Z,33.18
2022-08-03T13:24:03.689Z,33.98
2022-08-03T13:26:51.745Z,34.77
2022-08-03T13:29:39.224Z,34.14
2022-08-03T13:32:26.487Z,33.14
2022-08-03T13:35:16.499Z,32.97
2022-08-03T13:38:04.338Z,33.74
2022-08-03T13:40:56.459Z,34.44
2022-08-03T13:43:43.802Z,33.88
2022-08-03T13:46:31.344Z,33.25
2022-08-03T13:49:19.803Z,33.36
2022-08-03T13:52:07.386Z,32.51
2022-08-03T13:54:54.950Z,32.31
2022-08-03T13:58:11.928Z,32.19
2022-08-03T14:00:31.554Z,31.90
2022-08-03T14:03:18.979Z,31.46
2022-08-03T14:06:07.153Z,30.78
2022-08-03T14:09:00.310Z,30.82
2022-08-03T14:12:07.650Z,32.09
2022-08-03T14:14:34.791Z,32.09
2022-08-03T14:17:23.909Z,32.14
2022-08-03T14:20:36.635Z,33.69
2022-08-03T14:23:02.490Z,34.86
2022-08-03T14:25:52.354Z,35.25
2022-08-03T14:28:39.001Z,34.08
2022-08-03T14:32:09.982Z,32.87
2022-08-03T14:34:16.480Z,31.94
2022-08-03T14:37:03.874Z,30.99
2022-08-03T14:40:00.071Z,30.18
2022-08-03T14:42:40.234Z,29.60
2022-08-03T14:45:27.842Z,29.21
2022-08-03T14:50:30.725Z,28.93
2022-08-03T14:51:04.154Z,28.74
2022-08-03T14:53:51.609Z,28.59
2022-08-03T14:56:39.314Z,28.84
2022-08-03T14:59:26.426Z,30.53
2022-08-03T15:02:23.310Z,31.25
2022-08-03T15:05:03.411Z,31.23
2022-08-03T15:07:51.245Z,32.13
2022-08-03T15:10:44.425Z,33.80
2022-08-03T15:13:28.873Z,35.15
2022-08-03T15:16:16.665Z,36.03
2022-08-03T15:19:04.908Z,36.27
2022-08-03T15:21:53.461Z,36.79
2022-08-03T15:24:40.953Z,37.04
2022-08-03T15:27:28.377Z,37.28
2022-08-03T15:30:16.088Z,37.27
2022-08-03T15:33:03.745Z,37.24
2022-08-03T15:35:51.178Z,37.25
2022-08-03T15:38:38.560Z,37.33
2022-08-03T15:41:26.122Z,37.44
2022-08-03T15:44:13.577Z,37.20
2022-08-03T15:47:00.650Z,35.57
2022-08-03T15:49:48.264Z,33.89
2022-08-03T15:52:35.617Z,33.90
2022-08-03T15:55:23.193Z,34.63
2022-08-03T15:59:04.323Z,35.26
2022-08-03T16:01:03.799Z,35.54
2022-08-03T16:03:51.194Z,35.67
2022-08-03T16:06:38.776Z,35.62
2022-08-03T16:09:43.200Z,35.71
2022-08-03T16:12:16.878Z,35.77
2022-08-03T16:15:05.802Z,35.80
2022-08-03T16:17:53.740Z,35.85
2022-08-03T16:20:41.713Z,35.99
2022-08-03T16:23:29.547Z,36.07
2022-08-03T16:26:18.621Z,35.86
2022-08-03T16:29:08.524Z,35.36
2022-08-03T16:31:55.178Z,34.07
2022-08-03T16:34:42.628Z,32.60
2022-08-03T16:37:38.932Z,31.58
2022-08-03T16:40:19.954Z,30.71
2022-08-03T16:43:18.516Z,29.95
2022-08-03T16:46:03.410Z,29.41
2022-08-03T16:48:50.809Z,28.91
2022-08-03T16:51:40.372Z,28.57
2022-08-03T16:54:29.024Z,28.27
2022-08-03T16:57:29.726Z,28.00
2022-08-03T17:00:06.706Z,27.73
2022-08-03T17:02:56.528Z,27.53
2022-08-03T17:05:47.150Z,27.19
2022-08-03T17:08:34.041Z,27.19
2022-08-03T17:11:21.674Z,27.10
2022-08-03T17:14:09.862Z,27.00
2022-08-03T17:17:01.661Z,26.89
2022-08-03T17:19:54.266Z,26.76
2022-08-03T17:22:40.681Z,26.61
2022-08-03T17:26:01.354Z,26.51
2022-08-03T17:28:43.100Z,26.38
2022-08-03T17:31:31.420Z,26.27
2022-08-03T17:34:12.312Z,26.13
2022-08-03T17:37:04.868Z,25.99
2022-08-03T17:39:58.753Z,25.78
2022-08-03T17:42:40.700Z,25.60
2022-08-03T17:45:52.596Z,25.43
2022-08-03T17:48:18.870Z,25.26
2022-08-03T17:51:15.444Z,25.08
2022-08-03T17:54:21.963Z,24.84
2022-08-03T17:57:22.712Z,24.65
2022-08-03T18:00:27.097Z,24.46
2022-08-03T18:03:24.202Z,24.26
2022-08-03T18:06:12.850Z,24.04
2022-08-03T18:11:52.681Z,23.64
2022-08-03T18:14:57.912Z,23.42
2022-08-03T18:17:55.337Z,23.23
2022-08-03T18:20:32.808Z,23.01
2022-08-03T18:23:24.866Z,22.82
2022-08-03T18:26:07.256Z,22.61
2022-08-03T18:28:56.426Z,22.43
2022-08-03T18:32:02.504Z,22.32
2022-08-03T18:34:35.577Z,22.23
2022-08-03T18:37:27.585Z,22.14
2022-08-03T18:40:20.629Z,22.09
2022-08-03T18:43:07.969Z,21.99
2022-08-03T18:45:58.240Z,21.86
2022-08-03T18:48:51.536Z,21.75
2022-08-03T18:51:43.171Z,21.63
2022-08-03T18:54:47.045Z,21.48
2022-08-03T18:57:30.377Z,21.36
2022-08-03T19:00:15.817Z,21.28
2022-08-03T19:03:09.097Z,21.18
2022-08-03T19:06:13.312Z,21.08
2022-08-03T19:09:09.678Z,20.98
2022-08-03T19:12:14.066Z,20.91
2022-08-03T19:14:52.225Z,20.83
2022-08-03T19:17:50.221Z,20.74
2022-08-03T19:20:36.561Z,20.63
2022-08-03T19:23:26.217Z,20.54
2022-08-03T19:26:30.215Z,20.45
2022-08-03T19:29:15.149Z,20.34
2022-08-03T19:32:00.152Z,20.21
2022-08-03T19:34:49.441Z,20.06
2022-08-03T19:37:40.279Z,19.93
2022-08-03T19:40:30.482Z,19.81
2022-08-03T19:43:33.133Z,19.76
2022-08-03T19:46:30.322Z,19.72
2022-08-03T19:49:14.765Z,19.71
2022-08-03T19:52:04.377Z,19.70
2022-08-03T19:54:55.294Z,19.65
2022-08-03T19:57:46.031Z,19.55
2022-08-03T20:00:38.137Z,19.45
2022-08-03T20:03:42.951Z,19.38
2022-08-03T20:06:25.377Z,19.29
2022-08-03T20:09:15.005Z,19.23
2022-08-03T20:12:07.191Z,19.18
2022-08-03T20:14:56.832Z,19.10
2022-08-03T20:17:54.537Z,19.06
2022-08-03T20:20:37.185Z,19.03
2022-08-03T20:23:26.105Z,18.99
2022-08-03T20:26:20.480Z,18.98
2022-08-03T20:29:11.298Z,18.99
2022-08-03T20:31:59.466Z,18.98
2022-08-03T20:34:49.420Z,18.95
2022-08-03T20:37:37.322Z,18.92
2022-08-03T20:40:27.500Z,18.89
2022-08-03T20:43:15.761Z,18.86
2022-08-03T20:46:29.406Z,18.85
2022-08-03T20:48:52.858Z,18.85
2022-08-03T20:51:49.762Z,18.88
2022-08-03T20:54:31.850Z,18.85
2022-08-03T20:57:20.134Z,18.76
2022-08-03T21:00:10.428Z,18.63
2022-08-03T21:02:58.849Z,18.56
2022-08-03T21:05:51.764Z,18.55
2022-08-03T21:11:41.415Z,18.62
2022-08-03T21:12:56.884Z,23.85
2022-08-03T21:13:14.253Z,18.57
2022-08-03T21:14:35.520Z,18.65
2022-08-03T21:17:39.609Z,18.63
2022-08-03T21:20:13.793Z,18.62
2022-08-03T21:23:01.876Z,18.56
2022-08-03T21:25:51.041Z,18.50
2022-08-03T21:28:39.952Z,18.41
2022-08-03T21:31:27.343Z,18.32
2022-08-03T21:34:15.049Z,18.26
2022-08-03T21:37:02.768Z,18.21
2022-08-03T21:39:51.255Z,18.17
2022-08-03T21:42:43.297Z,18.09
2022-08-03T21:45:30.560Z,18.03
2022-08-03T21:48:18.448Z,17.97
2022-08-03T21:51:07.601Z,17.94
2022-08-03T21:54:03.231Z,17.91
2022-08-03T21:56:45.032Z,17.86
2022-08-03T21:59:36.608Z,17.81
2022-08-03T22:02:31.555Z,17.74
2022-08-03T22:05:20.024Z,17.68
2022-08-03T22:08:09.417Z,17.62
2022-08-03T22:10:56.672Z,17.55
2022-08-03T22:13:44.794Z,17.50
2022-08-03T22:16:32.160Z,17.41
2022-08-03T22:19:20.001Z,17.38
2022-08-03T22:22:10.361Z,17.36
2022-08-03T22:24:58.425Z,17.36
2022-08-03T22:27:47.138Z,17.35
2022-08-03T22:30:34.723Z,17.34
2022-08-03T22:33:22.794Z,17.29
2022-08-03T22:36:11.787Z,17.26
2022-08-03T22:38:59.126Z,17.24
2022-08-03T22:41:47.017Z,17.21
2022-08-03T22:44:36.768Z,17.18
2022-08-03T22:47:24.968Z,17.13
2022-08-03T22:50:31.948Z,17.06
2022-08-03T22:53:04.024Z,16.97
2022-08-03T22:55:52.534Z,16.86
2022-08-03T22:58:40.483Z,16.82
2022-08-03T23:01:29.474Z,16.74
2022-08-03T23:04:18.068Z,16.69
2022-08-03T23:07:09.424Z,16.67
2022-08-03T23:09:58.657Z,16.62
2022-08-03T23:12:49.410Z,16.50
2022-08-03T23:15:37.098Z,16.40
2022-08-03T23:18:25.610Z,16.41
2022-08-03T23:21:13.146Z,16.41
2022-08-03T23:24:05.265Z,16.38
2022-08-03T23:26:54.176Z,16.37
2022-08-03T23:29:43.770Z,16.36
2022-08-03T23:32:32.282Z,16.36
2022-08-03T23:36:29.163Z,16.38
2022-08-03T23:38:31.651Z,16.41
2022-08-03T23:41:19.553Z,16.43
2022-08-03T23:44:06.865Z,16.39
2022-08-03T23:46:54.011Z,16.32
2022-08-03T23:49:41.387Z,16.28
2022-08-03T23:52:37.714Z,16.24
2022-08-03T23:55:52.746Z,16.20
2022-08-03T23:59:04.137Z,16.15
